Latest Weather Observations for Sellicks Hill

IDS60801

Issued at 2:11 am CST Friday 26 April 2019 (issued every 10 minutes, with the page automatically refreshed every 10 minutes)

About weather observations | Map of weather stations | Latest weather observations for SA | Other Formats
Station Details ID: 023886 Name: MOUNT TERRIBLE RADAR Lat: -35.33 Lon: 138.50 Height: 385.7 m
Data from the previous 72 hours. | See also: Recent months at Sellicks Hill
Date/Time
CST
Temp
°C
App
Temp
°C
Dew
Point
°C
Rel
Hum
%
Delta-T
°C
Wind Press
QNH
hPa
Press
MSL
hPa
Rain since
9am
mm
Dir  Spd
km/h
Gust
km/h
Spd
kts
Gust
kts
26/02:00am - - - - - W 9 20 5 11 - - -
26/01:30am - - - - - W 9 20 5 11 - - -
26/01:00am - - - - - W 11 30 6 16 - - -
26/12:30am - - - - - W 11 26 6 14 - - -
26/12:00am - - - - - WNW 11 22 6 12 - - -
 
Date/Time
CST
Temp
°C
App
Temp
°C
Dew
Point
°C
Rel
Hum
%
Delta-T
°C
Wind Press
QNH
hPa
Press
MSL
hPa
Rain since
9am
mm
Dir  Spd
km/h
Gust
km/h
Spd
kts
Gust
kts
25/11:30pm - - - - - W 9 24 5 13 - - -
25/11:00pm - - - - - W 7 22 4 12 - - -
25/10:30pm - - - - - W 9 24 5 13 - - -
25/10:00pm - - - - - W 9 20 5 11 - - -
25/09:30pm - - - - - W 6 15 3 8 - - -
25/09:00pm - - - - - W 11 20 6 11 - - -
25/08:30pm - - - - - WNW 11 22 6 12 - - -
25/08:00pm - - - - - WNW 13 26 7 14 - - -
25/07:30pm - - - - - WNW 13 28 7 15 - - -
25/07:00pm - - - - - NW 13 24 7 13 - - -
25/06:30pm - - - - - WNW 15 26 8 14 - - -
25/06:00pm - - - - - WNW 13 28 7 15 - - -
25/05:30pm - - - - - WNW 13 24 7 13 - - -
25/05:00pm - - - - - WNW 11 28 6 15 - - -
25/04:30pm - - - - - WNW 11 28 6 15 - - -
25/04:00pm - - - - - WNW 15 30 8 16 - - -
25/03:30pm - - - - - WNW 11 24 6 13 - - -
25/03:00pm - - - - - WNW 11 20 6 11 - - -
25/02:30pm - - - - - WNW 9 20 5 11 - - -
25/02:00pm - - - - - WNW 9 20 5 11 - - -
25/01:30pm - - - - - NW 9 17 5 9 - - -
25/01:00pm - - - - - NW 11 30 6 16 - - -
25/12:30pm - - - - - NW 9 17 5 9 - - -
25/12:00pm - - - - - NW 11 22 6 12 - - -
25/11:30am - - - - - NNW 11 19 6 10 - - -
25/11:00am - - - - - NNW 9 19 5 10 - - -
25/10:30am - - - - - NNW 6 11 3 6 - - -
25/10:00am - - - - - NNW 6 11 3 6 - - -
25/09:30am - - - - - NNW 4 9 2 5 - - -
25/09:00am - - - - - NNW 2 6 1 3 - - -
25/08:30am - - - - - NW 2 7 1 4 - - -
25/08:00am - - - - - WNW 2 6 1 3 - - -
25/07:30am - - - - - CALM 0 0 0 0 - - -
25/07:00am - - - - - W 2 4 1 2 - - -
25/06:30am - - - - - W 4 7 2 4 - - -
25/06:00am - - - - - WSW 6 9 3 5 - - -
25/05:30am - - - - - WSW 4 7 2 4 - - -
25/05:00am - - - - - WSW 4 9 2 5 - - -
25/04:30am - - - - - WSW 6 13 3 7 - - -
25/04:00am - - - - - WSW 7 13 4 7 - - -
25/03:30am - - - - - WSW 4 9 2 5 - - -
25/03:00am - - - - - WSW 6 11 3 6 - - -
25/02:30am - - - - - WSW 7 11 4 6 - - -
25/02:00am - - - - - SW 6 11 3 6 - - -
25/01:30am - - - - - SW 7 11 4 6 - - -
25/01:00am - - - - - SSW 6 9 3 5 - - -
25/12:30am - - - - - S 7 9 4 5 - - -
25/12:00am - - - - - S 9 13 5 7 - - -
 
Date/Time
CST
Temp
°C
App
Temp
°C
Dew
Point
°C
Rel
Hum
%
Delta-T
°C
Wind Press
QNH
hPa
Press
MSL
hPa
Rain since
9am
mm
Dir  Spd
km/h
Gust
km/h
Spd
kts
Gust
kts
24/11:30pm - - - - - S 11 13 6 7 - - -
24/11:00pm - - - - - S 13 17 7 9 - - -
24/10:30pm - - - - - S 13 17 7 9 - - -
24/10:00pm - - - - - S 9 13 5 7 - - -
24/09:30pm - - - - - S 6 9 3 5 - - -
24/09:00pm - - - - - SSW 6 7 3 4 - - -
24/08:30pm - - - - - S 7 11 4 6 - - -
24/08:00pm - - - - - S 7 11 4 6 - - -
24/07:30pm - - - - - S 13 17 7 9 - - -
24/07:00pm - - - - - SSE 15 19 8 10 - - -
24/06:30pm - - - - - S 15 15 8 8 - - -
24/06:00pm - - - - - S 13 19 7 10 - - -
24/05:30pm - - - - - S 6 13 3 7 - - -
24/05:00pm - - - - - SSW 4 9 2 5 - - -
24/04:30pm - - - - - SSW 6 15 3 8 - - -
24/04:00pm - - - - - S 9 19 5 10 - - -
24/03:30pm - - - - - SSW 7 19 4 10 - - -
24/03:00pm - - - - - SSW 7 17 4 9 - - -
24/02:30pm - - - - - SW 6 17 3 9 - - -
24/02:00pm - - - - - W 7 13 4 7 - - -
24/01:30pm - - - - - WNW 7 17 4 9 - - -
24/01:00pm - - - - - WNW 7 15 4 8 - - -
24/12:30pm - - - - - W 9 20 5 11 - - -
24/12:00pm - - - - - W 4 9 2 5 - - -
24/11:30am - - - - - W 6 13 3 7 - - -
24/11:00am - - - - - W 4 9 2 5 - - -
24/10:30am - - - - - S 4 7 2 4 - - -
24/10:00am - - - - - SSW 6 13 3 7 - - -
24/09:30am - - - - - SSW 7 15 4 8 - - -
24/09:00am - - - - - SSE 11 15 6 8 - - -
24/08:30am - - - - - SE 11 13 6 7 - - -
24/08:00am - - - - - SE 13 15 7 8 - - -
24/07:30am - - - - - SSE 15 17 8 9 - - -
24/07:00am - - - - - SE 13 15 7 8 - - -
24/06:30am - - - - - ESE 13 17 7 9 - - -
24/06:00am - - - - - ESE 11 17 6 9 - - -
24/05:30am - - - - - ESE 11 15 6 8 - - -
24/05:00am - - - - - SE 15 17 8 9 - - -
24/04:30am - - - - - SE 17 19 9 10 - - -
24/04:00am - - - - - ESE 13 17 7 9 - - -
24/03:30am - - - - - ESE 15 19 8 10 - - -
24/03:00am - - - - - ESE 15 20 8 11 - - -
24/02:30am - - - - - SE 19 20 10 11 - - -
24/02:00am - - - - - SE 19 20 10 11 - - -
24/01:30am - - - - - SE 17 20 9 11 - - -
24/01:00am - - - - - SE 17 20 9 11 - - -
24/12:30am - - - - - SE 19 24 10 13 - - -
24/12:00am - - - - - SE 24 26 13 14 - - -
 
Date/Time
CST
Temp
°C
App
Temp
°C
Dew
Point
°C
Rel
Hum
%
Delta-T
°C
Wind Press
QNH
hPa
Press
MSL
hPa
Rain since
9am
mm
Dir  Spd
km/h
Gust
km/h
Spd
kts
Gust
kts
23/11:30pm - - - - - SE 22 24 12 13 - - -
23/11:00pm - - - - - SE 26 26 14 14 - - -
23/10:30pm - - - - - SE 28 30 15 16 - - -
23/10:00pm - - - - - SE 26 30 14 16 - - -
23/09:30pm - - - - - SSE 32 35 17 19 - - -
23/09:00pm - - - - - SE 30 35 16 19 - - -
23/08:30pm - - - - - SE 32 33 17 18 - - -
23/08:00pm - - - - - SE 30 35 16 19 - - -
23/07:30pm - - - - - SSE 33 37 18 20 - - -
23/07:00pm - - - - - SSE 32 37 17 20 - - -
23/06:30pm - - - - - SSE 32 37 17 20 - - -
23/06:00pm - - - - - SSE 32 37 17 20 - - -
23/05:30pm - - - - - SSE 32 41 17 22 - - -
23/05:00pm - - - - - SSE 37 43 20 23 - - -
23/04:30pm - - - - - SSE 37 43 20 23 - - -
23/04:00pm - - - - - SSE 33 39 18 21 - - -
23/03:30pm - - - - - SSE 32 37 17 20 - - -
23/03:00pm - - - - - SSE 32 39 17 21 - - -
23/02:30pm - - - - - SSE 28 39 15 21 - - -
23/02:00pm - - - - - SE 26 35 14 19 - - -
23/01:30pm - - - - - SE 20 30 11 16 - - -
23/01:00pm - - - - - SSE 22 32 12 17 - - -
23/12:30pm - - - - - SE 20 32 11 17 - - -
23/12:00pm - - - - - SE 22 33 12 18 - - -
23/11:30am - - - - - SE 22 30 12 16 - - -
23/11:00am - - - - - SE 22 30 12 16 - - -
23/10:30am - - - - - ESE 19 30 10 16 - - -
23/10:00am - - - - - SE 28 37 15 20 - - -
23/09:30am - - - - - SE 26 33 14 18 - - -
23/09:00am - - - - - SE 24 30 13 16 - - -
23/08:30am - - - - - ESE 20 28 11 15 - - -
23/08:00am - - - - - ESE 20 28 11 15 - - -
23/07:30am - - - - - ESE 20 30 11 16 - - -
23/07:00am - - - - - ESE 24 30 13 16 - - -
23/06:30am - - - - - ESE 22 32 12 17 - - -
23/06:00am - - - - - ESE 22 28 12 15 - - -
23/05:30am - - - - - ESE 20 26 11 14 - - -
23/05:00am - - - - - ESE 19 26 10 14 - - -
23/04:30am - - - - - ESE 19 28 10 15 - - -
23/04:00am - - - - - ESE 20 30 11 16 - - -
23/03:30am - - - - - ESE 19 30 10 16 - - -
23/03:00am - - - - - SE 20 26 11 14 - - -
23/02:30am - - - - - SE 20 24 11 13 - - -

Other formats

Comma delimited format used in spreadsheet applications
http://www.bom.gov.au/fwo/IDS60801/IDS60801.95679.axf

JavaScript Object Notation format (JSON) in row-major order
http://www.bom.gov.au/fwo/IDS60801/IDS60801.95679.json

Data quality

Most of these data are generated automatically and are frequently updated. Quality checks on data are not normally performed. It is possible for incorrect values to appear. Refer to information at About Latest Weather Observations and please check the disclaimer before using these data.